Time;durP1;ratioP1;P1;durP2;ratioP2;P2;SDS_P1;SDS_P2;PMS_P1;PMS_P2;Temp;Humidity;BMP_temperature;BMP_pressure;BME280_temperature;BME280_humidity;BME280_pressure;Samples;Min_cycle;Max_cycle;Signal;HPM_P1;HPM_P2
2021/03/10 00:01:45;;;;;;;23.80;6.22;;;;;;;23.30;49.45;102304.63;5032835;28;20053;-60
2021/03/10 00:04:11;;;;;;;18.25;6.10;;;;;;;23.30;49.22;102310.13;5032846;28;20029;-61
2021/03/10 00:06:36;;;;;;;17.92;5.85;;;;;;;23.28;49.42;102306.69;5032904;28;20079;-60
2021/03/10 00:09:01;;;;;;;21.80;6.60;;;;;;;23.27;49.39;102313.22;5032687;28;20495;-60
2021/03/10 00:11:27;;;;;;;19.95;5.53;;;;;;;23.25;48.86;102312.53;5032740;28;20028;-60
2021/03/10 00:13:52;;;;;;;17.98;5.88;;;;;;;23.24;50.10;102316.31;5032555;28;20492;-61
2021/03/10 00:16:17;;;;;;;17.83;5.88;;;;;;;23.25;49.34;102307.91;5032613;28;20053;-61
2021/03/10 00:18:42;;;;;;;18.45;6.28;;;;;;;23.26;49.30;102311.50;5032723;28;20381;-61
2021/03/10 00:21:08;;;;;;;16.45;5.13;;;;;;;23.23;50.05;102314.59;5032604;28;20029;-60
2021/03/10 00:23:33;;;;;;;21.92;6.22;;;;;;;23.23;49.78;102320.94;5032379;28;20481;-61
2021/03/10 00:25:58;;;;;;;16.00;6.10;;;;;;;23.23;49.48;102317.31;5031986;28;20033;-61
2021/03/10 00:28:24;;;;;;;18.40;5.50;;;;;;;23.21;49.13;102322.13;5032698;28;20032;-61
2021/03/10 00:30:49;;;;;;;16.08;5.80;;;;;;;23.21;48.88;102322.13;5031313;28;20388;-61
2021/03/10 00:33:14;;;;;;;19.55;6.05;;;;;;;23.18;48.28;102316.94;5032474;28;20068;-61
2021/03/10 00:35:39;;;;;;;20.58;5.63;;;;;;;23.20;48.29;102331.38;5032536;28;20034;-61
2021/03/10 00:38:05;;;;;;;17.02;5.88;;;;;;;23.18;48.18;102338.91;5032248;28;20018;-61
2021/03/10 00:40:30;;;;;;;19.13;5.93;;;;;;;23.17;48.10;102331.69;5033655;28;20067;-61
2021/03/10 00:42:55;;;;;;;19.27;5.53;;;;;;;23.17;49.06;102337.19;5036271;28;20295;-60
2021/03/10 00:45:21;;;;;;;17.40;5.47;;;;;;;23.17;48.43;102342.66;5036462;28;20037;-61
2021/03/10 00:47:46;;;;;;;16.85;5.80;;;;;;;23.16;47.95;102340.97;5036500;28;20374;-61
2021/03/10 00:50:23;;;;;;;16.20;5.90;;;;;;;23.15;48.12;102341.97;5036360;28;20458;-61
2021/03/10 00:52:48;;;;;;;16.23;5.22;;;;;;;23.13;48.02;102358.63;5036001;28;20532;-61
2021/03/10 00:55:14;;;;;;;18.73;6.30;;;;;;;23.13;48.10;102366.00;5036291;28;20112;-61
2021/03/10 00:57:39;;;;;;;17.02;5.40;;;;;;;23.13;48.36;102357.75;5036263;28;20022;-60
2021/03/10 01:00:06;;;;;;;16.58;6.05;;;;;;;23.11;47.35;102357.94;5036093;28;20060;-61
2021/03/10 01:02:31;;;;;;;15.60;5.85;;;;;;;23.09;48.52;102363.59;5036269;28;20071;-61
2021/03/10 01:04:57;;;;;;;16.70;5.32;;;;;;;23.11;47.43;102357.94;5035959;28;20025;-61
2021/03/10 01:07:22;;;;;;;17.95;5.30;;;;;;;23.11;48.35;102358.78;5036123;28;20510;-61
2021/03/10 01:09:47;;;;;;;20.75;6.18;;;;;;;23.06;48.35;102363.91;5036026;28;20525;-61
2021/03/10 01:12:12;;;;;;;19.35;5.78;;;;;;;23.08;48.38;102367.34;5035994;28;20071;-60
2021/03/10 01:14:38;;;;;;;16.35;5.78;;;;;;;23.06;48.08;102369.41;5036042;28;20048;-61
2021/03/10 01:17:03;;;;;;;22.17;6.13;;;;;;;23.07;47.70;102362.91;5035611;28;20026;-61
2021/03/10 01:19:28;;;;;;;17.40;5.75;;;;;;;23.07;48.15;102373.00;5035914;28;20033;-61
2021/03/10 01:21:53;;;;;;;21.00;6.28;;;;;;;23.05;47.51;102372.31;5035732;28;20044;-61
2021/03/10 01:24:19;;;;;;;17.75;5.97;;;;;;;23.06;47.88;102366.66;5035676;28;20027;-60
2021/03/10 01:26:44;;;;;;;20.13;6.70;;;;;;;23.06;47.86;102368.56;5035808;28;20045;-61
2021/03/10 01:29:09;;;;;;;15.20;5.30;;;;;;;23.05;49.31;102378.66;5035925;28;20465;-61
2021/03/10 01:31:35;;;;;;;14.93;5.22;;;;;;;23.02;48.42;102372.66;5035728;28;20155;-61
2021/03/10 01:34:00;;;;;;;17.65;5.90;;;;;;;23.02;48.58;102373.50;5035462;28;20032;-61
2021/03/10 01:36:25;;;;;;;21.08;6.13;;;;;;;23.01;47.43;102377.28;5035605;28;20090;-60
2021/03/10 01:38:51;;;;;;;18.90;6.38;;;;;;;23.00;49.49;102375.53;5032830;28;20481;-61
2021/03/10 01:41:16;;;;;;;17.05;5.50;;;;;;;23.02;48.22;102381.75;5035358;28;20018;-61
2021/03/10 01:43:41;;;;;;;17.85;6.13;;;;;;;23.00;48.17;102375.53;5035301;28;20037;-61
2021/03/10 01:46:07;;;;;;;19.02;5.65;;;;;;;23.01;47.80;102373.66;5035270;28;20025;-60
2021/03/10 01:48:33;;;;;;;17.73;5.60;;;;;;;23.01;48.38;102371.81;5055004;28;20032;-61
2021/03/10 01:51:05;;;;;;;21.13;6.55;;;;;;;22.99;46.97;102370.22;5054951;28;20029;-60
2021/03/10 01:53:31;;;;;;;19.10;5.18;;;;;;;22.96;47.47;102367.81;5044808;28;20048;-61
2021/03/10 01:55:56;;;;;;;20.50;6.53;;;;;;;22.98;47.54;102366.63;5034609;28;20469;-60
2021/03/10 01:58:22;;;;;;;20.88;5.90;;;;;;;22.98;47.89;102371.25;5035285;28;20036;-61
2021/03/10 02:00:47;;;;;;;18.48;6.18;;;;;;;22.95;48.06;102364.22;5035035;28;20068;-60
2021/03/10 02:03:13;;;;;;;20.05;6.00;;;;;;;22.98;48.03;102363.88;5035063;28;20022;-60
2021/03/10 02:05:38;;;;;;;20.48;5.68;;;;;;;22.96;47.68;102363.19;5035120;28;20033;-61
2021/03/10 02:08:09;;;;;;;19.25;6.60;;;;;;;22.94;48.02;102358.91;5034850;28;20028;-60
2021/03/10 02:11:13;;;;;;;16.70;5.32;;;;;;;22.95;47.46;102355.97;5035001;28;20025;-61
2021/03/10 02:13:46;;;;;;;18.48;6.00;;;;;;;22.94;47.83;102362.50;5034384;28;20524;-60
2021/03/10 02:16:24;;;;;;;19.70;5.45;;;;;;;22.93;48.08;102355.28;5034912;28;20053;-61
2021/03/10 02:19:04;;;;;;;20.17;5.18;;;;;;;22.95;46.61;102366.94;5034829;28;20342;-60
2021/03/10 02:21:41;;;;;;;16.33;5.05;;;;;;;22.93;47.48;102360.78;5034764;28;20079;-61
2021/03/10 02:24:44;;;;;;;17.88;5.82;;;;;;;22.95;47.98;102366.09;5034257;28;20026;-61
2021/03/10 02:27:32;;;;;;;16.63;5.15;;;;;;;22.92;47.38;102369.19;5034299;28;20068;-61
2021/03/10 02:30:26;;;;;;;23.38;6.40;;;;;;;22.94;48.28;102370.72;5034399;28;20068;-61
2021/03/10 02:32:55;;;;;;;17.38;5.78;;;;;;;22.94;49.26;102361.63;5032294;28;20044;-61
2021/03/10 02:35:22;;;;;;;20.25;6.30;;;;;;;22.93;49.30;102362.66;5034518;28;20033;-60
2021/03/10 02:37:51;;;;;;;20.65;6.82;;;;;;;22.93;49.38;102363.53;5034292;28;20025;-61
2021/03/10 02:40:18;;;;;;;14.68;5.47;;;;;;;22.95;49.66;102366.09;5035038;28;20026;-61
2021/03/10 02:42:45;;;;;;;17.60;6.45;;;;;;;22.95;50.03;102371.59;5034289;28;20053;-61
2021/03/10 02:45:12;;;;;;;21.23;7.18;;;;;;;22.95;50.17;102377.94;5034257;28;20560;-61
2021/03/10 02:47:38;;;;;;;17.10;5.65;;;;;;;22.96;50.79;102376.03;5034342;28;20101;-61
2021/03/10 02:50:06;;;;;;;20.20;6.07;;;;;;;22.94;50.99;102381.69;5034044;28;20112;-61
2021/03/10 02:52:32;;;;;;;18.65;5.50;;;;;;;22.94;50.66;102392.66;5033832;28;20048;-61
2021/03/10 02:54:58;;;;;;;16.58;5.57;;;;;;;22.93;50.42;102385.47;5032679;28;20492;-61
2021/03/10 02:57:24;;;;;;;20.90;6.28;;;;;;;22.91;50.08;102387.50;5034010;28;20108;-61
2021/03/10 02:59:51;;;;;;;18.63;5.40;;;;;;;22.94;49.77;102392.66;5034005;28;20523;-61
2021/03/10 03:02:16;;;;;;;13.93;5.68;;;;;;;22.91;49.90;102398.47;5034055;28;20152;-60
2021/03/10 03:04:42;;;;;;;19.70;5.88;;;;;;;22.93;49.00;102393.69;5033369;28;20100;-61
2021/03/10 03:07:08;;;;;;;18.13;5.85;;;;;;;22.91;49.84;102403.97;5034078;28;20021;-61
2021/03/10 03:09:34;;;;;;;19.15;6.40;;;;;;;22.92;49.68;102396.59;5033850;28;20108;-60
2021/03/10 03:12:02;;;;;;;17.92;5.78;;;;;;;22.91;49.18;102409.44;5033858;28;20470;-61
2021/03/10 03:14:30;;;;;;;23.10;6.07;;;;;;;22.90;49.17;102402.25;5034137;28;20384;-61
2021/03/10 03:16:56;;;;;;;17.67;5.70;;;;;;;22.92;48.63;102399.34;5033526;28;20026;-61
2021/03/10 03:19:21;;;;;;;19.65;5.53;;;;;;;22.91;49.03;102398.47;5033698;28;20071;-61
2021/03/10 03:21:47;;;;;;;18.10;5.78;;;;;;;22.88;49.09;102398.81;5033489;28;20025;-61
2021/03/10 03:24:15;;;;;;;18.90;5.75;;;;;;;22.90;48.90;102401.41;5032871;28;20111;-60
2021/03/10 03:26:41;;;;;;;22.88;6.05;;;;;;;22.87;48.63;102408.06;5033345;28;20025;-60
2021/03/10 03:29:07;;;;;;;22.02;6.30;;;;;;;22.88;48.70;102398.81;5033414;28;20075;-61
2021/03/10 03:31:34;;;;;;;23.05;7.22;;;;;;;22.87;48.43;102401.72;5033553;28;20025;-61
2021/03/10 03:34:00;;;;;;;20.42;7.10;;;;;;;22.88;49.35;102409.78;5033252;28;20071;-60
2021/03/10 03:36:25;;;;;;;19.95;6.22;;;;;;;22.87;48.54;102418.19;5033985;28;20033;-61
2021/03/10 03:38:51;;;;;;;17.75;6.30;;;;;;;22.86;48.80;102417.31;5033231;28;20029;-62
2021/03/10 03:41:19;;;;;;;16.45;6.43;;;;;;;22.86;48.56;102428.28;5033508;28;20353;-61
2021/03/10 03:43:44;;;;;;;16.02;5.65;;;;;;;22.86;47.83;102424.69;5033103;28;20435;-60
2021/03/10 03:46:10;;;;;;;19.02;5.70;;;;;;;22.81;48.59;102425.13;5033038;28;20025;-61
2021/03/10 03:48:35;;;;;;;19.33;7.72;;;;;;;22.84;48.63;102430.31;5033261;28;20025;-61
2021/03/10 03:51:00;;;;;;;17.05;5.57;;;;;;;22.84;48.66;102435.78;5032926;28;20029;-61
2021/03/10 03:53:26;;;;;;;16.85;5.88;;;;;;;22.83;48.70;102345.47;5032910;28;20048;-61
2021/03/10 03:55:51;;;;;;;19.50;5.82;;;;;;;22.84;48.26;102348.03;5032802;28;20030;-60
2021/03/10 03:58:16;;;;;;;17.52;5.50;;;;;;;22.82;48.67;102339.13;5033186;28;20076;-61
2021/03/10 04:00:42;;;;;;;20.05;6.07;;;;;;;22.89;48.64;102481.94;5031864;28;20108;-61
2021/03/10 04:03:07;;;;;;;17.15;5.47;;;;;;;22.84;48.69;102434.94;5032565;28;20366;-61
2021/03/10 04:05:32;;;;;;;22.80;6.38;;;;;;;22.85;49.16;102432.06;5032779;28;20040;-61
2021/03/10 04:07:59;;;;;;;14.65;5.10;;;;;;;22.83;48.27;102439.56;5032729;28;20350;-61
2021/03/10 04:10:27;;;;;;;19.55;6.10;;;;;;;22.83;49.16;102433.22;5032938;28;20030;-61
2021/03/10 04:12:52;;;;;;;16.67;5.32;;;;;;;22.85;48.55;102428.47;5032667;28;20070;-62
2021/03/10 04:15:18;;;;;;;17.60;5.45;;;;;;;22.85;48.59;102429.31;5031828;28;20029;-61
2021/03/10 04:17:43;;;;;;;14.80;5.50;;;;;;;22.80;49.08;102429.75;5032642;28;20025;-61
2021/03/10 04:20:11;;;;;;;19.63;5.55;;;;;;;22.80;49.65;102428.88;5032648;28;20021;-61
2021/03/10 04:22:36;;;;;;;21.73;6.07;;;;;;;22.83;49.43;102425.84;5032501;28;20465;-61
2021/03/10 04:25:03;;;;;;;22.00;6.47;;;;;;;22.81;49.81;102422.38;5032319;28;20041;-61
2021/03/10 04:27:28;;;;;;;17.67;6.15;;;;;;;22.79;48.53;102427.19;5032548;28;20030;-61
2021/03/10 04:29:53;;;;;;;21.73;6.93;;;;;;;22.84;49.41;102423.97;5032452;28;20032;-61
2021/03/10 04:32:19;;;;;;;20.20;6.15;;;;;;;22.80;49.24;102415.19;5032644;28;20025;-61
2021/03/10 04:34:44;;;;;;;19.75;5.82;;;;;;;22.77;48.94;102413.63;5032605;28;20084;-61
2021/03/10 04:37:09;;;;;;;17.20;5.43;;;;;;;22.80;49.26;102415.19;5032417;28;20524;-61
2021/03/10 04:39:34;;;;;;;18.35;5.35;;;;;;;22.80;48.88;102410.56;5032501;28;20029;-61
2021/03/10 04:42:00;;;;;;;20.50;6.25;;;;;;;22.81;49.48;102411.41;5032075;28;20049;-61
2021/03/10 04:44:25;;;;;;;16.77;5.82;;;;;;;22.81;48.97;102405.94;5032563;28;20199;-61
2021/03/10 04:46:50;;;;;;;19.92;7.00;;;;;;;22.78;49.20;102409.00;5030898;28;20025;-62
2021/03/10 04:49:15;;;;;;;19.70;6.00;;;;;;;22.79;48.91;102416.22;5031114;28;20108;-61
2021/03/10 04:51:41;;;;;;;18.73;6.00;;;;;;;22.78;49.69;102398.91;5032080;28;20026;-62
2021/03/10 04:54:06;;;;;;;17.92;5.47;;;;;;;22.77;50.78;102396.31;5032258;28;20121;-61
2021/03/10 04:56:31;;;;;;;18.48;5.82;;;;;;;22.79;50.02;102403.34;5030963;28;20037;-61
2021/03/10 04:58:56;;;;;;;19.95;6.07;;;;;;;22.79;51.16;102399.75;5032201;28;20457;-61
2021/03/10 05:01:22;;;;;;;19.23;5.90;;;;;;;22.84;50.82;102407.50;5032198;28;20021;-61
2021/03/10 05:03:47;;;;;;;22.90;6.15;;;;;;;23.72;48.94;102408.88;5032279;28;20029;-61
2021/03/10 05:06:12;;;;;;;21.83;6.43;;;;;;;23.90;48.75;102405.97;5032272;28;20640;-61
2021/03/10 05:08:37;;;;;;;21.08;6.43;;;;;;;23.99;49.62;102391.19;5032388;28;20116;-61
2021/03/10 05:11:03;;;;;;;16.17;5.10;;;;;;;24.03;48.59;102398.09;5032110;28;20380;-61
2021/03/10 05:13:28;;;;;;;18.58;6.22;;;;;;;24.15;48.09;102404.94;5032550;28;20026;-61
2021/03/10 05:15:53;;;;;;;24.27;6.82;;;;;;;24.22;48.93;102403.22;5031915;28;20469;-61
2021/03/10 05:18:19;;;;;;;17.80;6.03;;;;;;;24.26;49.06;102399.09;5032284;28;20112;-61
2021/03/10 05:20:44;;;;;;;15.27;5.60;;;;;;;24.34;49.13;102397.38;5032295;28;20028;-61
2021/03/10 05:23:09;;;;;;;22.42;5.95;;;;;;;24.30;48.70;102378.50;5031801;28;20034;-61
2021/03/10 05:25:35;;;;;;;17.42;5.53;;;;;;;24.33;49.38;102391.03;5030802;28;20384;-61
2021/03/10 05:28:00;;;;;;;20.38;6.70;;;;;;;24.33;49.09;102395.69;5035246;28;20029;-61
2021/03/10 05:30:25;;;;;;;19.80;5.72;;;;;;;24.34;48.80;102398.25;5034624;28;20025;-60
2021/03/10 05:32:50;;;;;;;18.92;6.20;;;;;;;24.39;48.96;102411.50;5035606;28;20534;-61
2021/03/10 05:35:16;;;;;;;18.98;5.78;;;;;;;24.36;48.24;102403.59;5035655;28;20064;-61
2021/03/10 05:37:41;;;;;;;20.35;6.00;;;;;;;24.40;48.04;102407.72;5035874;28;20028;-61
2021/03/10 05:40:08;;;;;;;18.40;6.20;;;;;;;24.36;48.47;102414.59;5035493;28;20018;-61
2021/03/10 05:42:37;;;;;;;20.10;6.00;;;;;;;24.45;47.13;102406.16;5035480;28;20052;-61
2021/03/10 05:45:03;;;;;;;19.35;6.53;;;;;;;24.40;47.59;102408.56;5035252;28;20032;-61
2021/03/10 05:47:28;;;;;;;20.05;6.18;;;;;;;24.42;47.64;102416.63;5035730;28;20017;-61
2021/03/10 05:49:54;;;;;;;18.88;5.50;;;;;;;24.48;47.87;102415.94;5035180;28;20039;-61
2021/03/10 05:52:22;;;;;;;19.08;5.53;;;;;;;24.51;47.38;102421.94;5035004;28;20033;-61
2021/03/10 05:54:50;;;;;;;21.83;7.07;;;;;;;24.45;46.97;102416.28;5035427;28;20100;-61
2021/03/10 05:57:16;;;;;;;21.40;6.38;;;;;;;24.46;47.89;102415.25;5035172;28;20040;-61
2021/03/10 05:59:41;;;;;;;17.13;5.40;;;;;;;24.52;47.45;102406.28;5035259;28;20021;-61
2021/03/10 06:02:06;;;;;;;18.80;5.93;;;;;;;24.50;46.99;102411.09;5035062;28;20025;-61
2021/03/10 06:04:42;;;;;;;18.90;5.60;;;;;;;24.48;47.09;102400.28;5035247;28;20075;-60
2021/03/10 06:07:24;;;;;;;21.85;6.15;;;;;;;24.53;47.26;102408.03;5034994;28;20021;-61
2021/03/10 06:10:00;;;;;;;21.05;6.38;;;;;;;24.46;46.62;102407.00;5035067;28;20033;-61
2021/03/10 06:12:45;;;;;;;20.25;6.05;;;;;;;24.49;46.65;102402.00;5035096;28;20104;-61
2021/03/10 06:15:11;;;;;;;;;;;;;;;24.55;46.47;102408.72;5035306;28;20029;-61
2021/03/10 06:17:47;;;;;;;18.05;5.65;;;;;;;24.50;46.73;102408.34;5034891;28;19917;-61
2021/03/10 06:20:27;;;;;;;19.30;5.57;;;;;;;24.52;48.11;102412.69;5034864;28;20484;-61
2021/03/10 06:22:54;;;;;;;18.58;5.50;;;;;;;24.53;46.96;102421.78;5034415;28;20029;-61
2021/03/10 06:25:20;;;;;;;21.15;5.90;;;;;;;24.54;47.55;102416.09;5034306;28;20056;-61
2021/03/10 06:27:56;;;;;;;22.55;6.55;;;;;;;24.54;46.70;102404.25;5033469;28;20060;-61
2021/03/10 06:30:43;;;;;;;18.27;5.57;;;;;;;24.53;46.65;102408.91;5034772;28;20032;-61
2021/03/10 06:33:09;;;;;;;16.25;5.70;;;;;;;24.52;46.74;102411.78;5034591;28;20032;-61
2021/03/10 06:35:36;;;;;;;21.13;6.55;;;;;;;24.53;46.89;102408.03;5034559;28;20079;-61
2021/03/10 06:38:13;;;;;;;16.42;4.97;;;;;;;24.56;48.01;102407.69;5032000;28;20112;-61
2021/03/10 06:40:55;;;;;;;24.30;5.97;;;;;;;24.56;47.01;102413.19;5033269;28;20029;-61
2021/03/10 06:43:32;;;;;;;14.90;5.20;;;;;;;24.54;47.13;102412.50;5034298;28;20417;-61
2021/03/10 06:46:08;;;;;;;19.35;6.70;;;;;;;24.58;47.32;102411.97;5034508;28;20022;-61
2021/03/10 06:48:33;;;;;;;16.35;5.63;;;;;;;24.58;46.58;102411.97;5034424;28;20025;-61
2021/03/10 06:50:59;;;;;;;20.25;5.88;;;;;;;24.59;47.27;102412.81;5034091;28;20510;-61
2021/03/10 06:53:31;;;;;;;20.02;5.63;;;;;;;24.58;47.25;102422.09;5033935;28;20040;-60
2021/03/10 06:55:57;;;;;;;24.05;6.40;;;;;;;24.58;46.10;102419.34;5034035;28;20025;-61
2021/03/10 06:58:24;;;;;;;20.35;6.82;;;;;;;24.59;46.39;102423.81;5034229;28;20044;-61
2021/03/10 07:01:00;;;;;;;21.23;6.80;;;;;;;24.58;46.88;102427.59;5033000;28;20420;-61
2021/03/10 07:03:27;;;;;;;19.70;6.03;;;;;;;24.59;47.16;102429.31;5034058;28;20419;-61
2021/03/10 07:05:54;;;;;;;21.70;6.53;;;;;;;24.58;47.16;102427.59;5033767;28;20055;-61
2021/03/10 07:08:19;;;;;;;17.17;5.63;;;;;;;24.60;47.75;102429.16;5034141;28;20033;-61
2021/03/10 07:10:45;;;;;;;20.73;5.97;;;;;;;24.66;47.91;102430.31;5032633;28;20018;-61
2021/03/10 07:13:13;;;;;;;20.42;6.18;;;;;;;24.65;47.76;102417.63;5033769;28;20040;-61
2021/03/10 07:15:38;;;;;;;21.13;6.57;;;;;;;24.66;47.81;102419.31;5033797;28;20025;-60
2021/03/10 07:18:05;;;;;;;20.15;6.35;;;;;;;24.65;48.61;102414.00;5033549;28;20028;-61
2021/03/10 07:20:30;;;;;;;19.00;5.95;;;;;;;24.63;49.66;102425.19;5033076;28;20043;-61
2021/03/10 07:23:06;;;;;;;19.83;5.70;;;;;;;24.63;49.52;102419.69;5033122;28;20104;-60
2021/03/10 07:25:33;;;;;;;20.67;6.05;;;;;;;24.64;48.56;102415.91;5032381;28;20025;-60
2021/03/10 07:28:02;;;;;;;21.10;6.95;;;;;;;24.59;49.51;102418.31;5032783;28;20017;-61
2021/03/10 07:30:48;;;;;;;16.67;5.53;;;;;;;24.62;48.30;102428.97;5031972;28;20062;-61
2021/03/10 07:33:16;;;;;;;18.33;5.90;;;;;;;24.65;48.24;102428.59;5033129;28;20067;-61
2021/03/10 07:35:58;;;;;;;18.98;5.13;;;;;;;24.60;47.99;102425.53;5030948;28;20033;-62
2021/03/10 07:38:25;;;;;;;18.30;5.63;;;;;;;24.65;48.16;102423.13;5027059;28;20112;-61
2021/03/10 07:41:04;;;;;;;18.65;5.85;;;;;;;24.65;47.83;102434.13;5030200;28;20125;-61
2021/03/10 07:43:46;;;;;;;17.20;5.65;;;;;;;24.64;48.25;102437.03;5030841;28;20435;-61
2021/03/10 07:46:17;;;;;;;17.70;6.72;;;;;;;24.62;48.15;102442.72;5028678;28;20033;-61
2021/03/10 07:48:43;;;;;;;18.67;6.75;;;;;;;24.69;49.08;102438.25;5030788;28;20428;-62
2021/03/10 07:51:08;;;;;;;16.08;6.05;;;;;;;24.65;48.07;102428.59;5030153;28;20048;-64
2021/03/10 07:53:38;;;;;;;18.27;5.15;;;;;;;24.66;47.92;102430.31;5022412;28;20041;-63
2021/03/10 07:56:04;;;;;;;20.40;5.93;;;;;;;24.69;47.08;102427.25;5030756;28;20579;-63
2021/03/10 07:58:31;;;;;;;16.63;5.93;;;;;;;24.69;48.38;102432.75;5031713;28;20023;-62
2021/03/10 08:00:57;;;;;;;17.08;5.45;;;;;;;24.69;47.48;102441.00;5030791;28;20484;-63
2021/03/10 08:03:32;;;;;;;19.65;6.20;;;;;;;24.68;47.48;102436.50;5030661;28;20044;-63
2021/03/10 08:06:05;;;;;;;23.80;6.88;;;;;;;24.67;47.25;102437.53;5030205;28;20029;-63
2021/03/10 08:08:39;;;;;;;20.88;5.68;;;;;;;24.68;47.62;102433.75;5029510;28;20115;-64
2021/03/10 08:11:12;;;;;;;17.58;6.20;;;;;;;24.66;47.11;102441.31;5030044;28;20370;-65
2021/03/10 08:13:38;;;;;;;17.67;6.00;;;;;;;24.71;47.33;102436.19;5022207;28;20025;-65
2021/03/10 08:16:05;;;;;;;18.42;6.18;;;;;;;24.70;47.18;102431.72;5024065;28;20044;-66
2021/03/10 08:18:33;;;;;;;14.80;5.13;;;;;;;24.68;47.27;102439.25;5020020;28;20053;-65
2021/03/10 08:21:11;;;;;;;19.48;6.43;;;;;;;24.73;47.96;102439.59;5029664;28;20029;-65
2021/03/10 08:23:37;;;;;;;19.45;5.75;;;;;;;24.70;47.12;102447.34;5030703;28;20044;-66
2021/03/10 08:26:09;;;;;;;16.55;6.63;;;;;;;24.73;47.18;102447.84;5030726;28;20037;-65
2021/03/10 08:28:37;;;;;;;18.52;6.68;;;;;;;24.67;47.04;102437.53;5031691;28;20029;-65
2021/03/10 08:31:05;;;;;;;23.65;7.35;;;;;;;24.70;47.31;102439.09;5028414;28;20075;-65
2021/03/10 08:33:31;;;;;;;18.30;5.53;;;;;;;24.71;46.98;102441.69;5030193;28;20412;-66
2021/03/10 08:35:57;;;;;;;17.65;5.78;;;;;;;24.67;46.16;102440.28;5030964;28;20025;-66
2021/03/10 08:38:22;;;;;;;25.10;5.93;;;;;;;24.70;47.61;102445.47;5020615;28;20461;-65
2021/03/10 08:40:48;;;;;;;18.88;5.97;;;;;;;24.70;47.03;102442.72;5026970;28;20096;-66
2021/03/10 08:43:20;;;;;;;20.88;6.60;;;;;;;24.70;47.45;102441.84;5029896;28;20489;-66
2021/03/10 08:45:46;;;;;;;17.70;5.47;;;;;;;24.70;47.45;102453.72;5034626;28;20048;-65
2021/03/10 08:48:13;;;;;;;18.88;5.50;;;;;;;24.69;47.32;102449.25;5026491;28;20044;-64
2021/03/10 08:50:42;;;;;;;18.33;6.35;;;;;;;24.71;47.27;102455.44;5027800;28;20033;-65
2021/03/10 08:53:11;;;;;;;18.70;5.50;;;;;;;24.73;46.98;102453.38;5021698;28;20018;-66
2021/03/10 08:55:37;;;;;;;21.60;6.10;;;;;;;24.70;46.27;102453.72;5029801;28;20116;-63
2021/03/10 08:58:14;;;;;;;19.05;6.03;;;;;;;24.74;46.02;102449.56;5027089;28;20589;-63
2021/03/10 09:00:41;;;;;;;20.27;6.45;;;;;;;24.70;46.98;102448.22;5027190;28;20037;-61
2021/03/10 09:03:14;;;;;;;20.23;5.97;;;;;;;24.71;47.71;102440.81;5027117;28;20018;-64
2021/03/10 09:05:41;;;;;;;18.80;5.85;;;;;;;24.74;45.33;102444.06;5023820;28;20068;-64
2021/03/10 09:08:10;;;;;;;19.77;6.15;;;;;;;24.72;45.87;102446.16;5024155;28;20453;-63
2021/03/10 09:10:36;;;;;;;18.60;5.63;;;;;;;24.71;46.83;102449.94;5034538;28;20052;-64
2021/03/10 09:13:02;;;;;;;25.05;6.68;;;;;;;24.74;46.91;102448.72;5033290;28;20108;-64
2021/03/10 09:15:30;;;;;;;15.75;5.88;;;;;;;24.74;46.35;102444.06;5031519;28;20075;-64
2021/03/10 09:18:06;;;;;;;19.85;6.32;;;;;;;24.72;45.91;102446.16;5031433;28;20028;-63
2021/03/10 09:20:34;;;;;;;18.17;5.47;;;;;;;24.73;47.16;102447.84;5034598;28;20014;-63
2021/03/10 09:23:00;;;;;;;18.58;6.03;;;;;;;24.75;46.74;102450.44;5033201;28;20029;-65
2021/03/10 09:25:27;;;;;;;23.50;6.68;;;;;;;24.72;46.52;102446.16;5033792;28;20032;-63
2021/03/10 09:28:03;;;;;;;18.58;6.10;;;;;;;24.76;47.32;102458.50;5034474;28;20025;-64
2021/03/10 09:30:31;;;;;;;20.50;6.93;;;;;;;24.75;47.15;102462.28;5033075;28;20028;-64
2021/03/10 09:32:57;;;;;;;18.25;5.45;;;;;;;24.75;47.99;102462.28;5033271;28;20044;-64
2021/03/10 09:35:29;;;;;;;24.23;6.25;;;;;;;24.81;48.87;102460.72;5028672;28;20485;-63
2021/03/10 09:38:20;;;;;;;21.40;6.82;;;;;;;24.80;48.37;102462.63;5024485;28;20061;-64
2021/03/10 09:40:50;;;;;;;20.65;6.68;;;;;;;24.83;48.01;102454.00;5021397;28;20044;-64
2021/03/10 09:43:18;;;;;;;17.48;6.20;;;;;;;24.75;48.92;102456.78;5027635;28;20116;-62
2021/03/10 09:45:45;;;;;;;24.77;7.10;;;;;;;24.75;48.02;102433.94;5028152;28;20037;-62
2021/03/10 09:48:15;;;;;;;17.20;5.40;;;;;;;24.78;48.46;102450.06;5031484;28;20064;-60
2021/03/10 09:50:46;;;;;;;20.00;6.40;;;;;;;24.80;49.51;102454.38;5032266;28;20036;-60
2021/03/10 09:53:24;;;;;;;18.15;6.00;;;;;;;24.75;48.46;102451.28;5033891;28;20022;-61
2021/03/10 09:55:50;;;;;;;18.13;5.45;;;;;;;24.79;49.19;102447.16;5035047;28;20037;-61
2021/03/10 09:58:15;;;;;;;15.15;5.25;;;;;;;24.79;49.08;102452.66;5015401;28;20420;-60
2021/03/10 10:00:42;;;;;;;17.85;5.50;;;;;;;24.76;48.66;102447.50;5033673;28;20488;-63
2021/03/10 10:03:09;;;;;;;22.10;6.18;;;;;;;24.72;48.23;102440.66;5033186;28;20029;-62
2021/03/10 10:05:37;;;;;;;14.52;5.30;;;;;;;24.76;48.13;102439.25;5033398;28;20033;-60
2021/03/10 10:08:04;;;;;;;16.20;5.18;;;;;;;24.72;49.58;102437.91;5034639;28;20020;-60
2021/03/10 10:10:31;;;;;;;22.80;7.00;;;;;;;24.73;48.26;102436.84;5029447;28;20037;-60
2021/03/10 10:12:57;;;;;;;25.58;6.35;;;;;;;24.76;48.14;102444.75;5033600;28;20037;-60
2021/03/10 10:15:25;;;;;;;17.95;5.95;;;;;;;24.72;48.23;102443.41;5034425;28;20101;-60
2021/03/10 10:17:53;;;;;;;17.65;6.00;;;;;;;24.73;48.49;102442.34;5034469;28;20041;-60
2021/03/10 10:20:22;;;;;;;16.63;4.97;;;;;;;24.73;48.65;102436.84;5032870;28;20040;-61
2021/03/10 10:22:47;;;;;;;20.40;6.72;;;;;;;24.75;47.55;102434.78;5033247;28;20021;-62
2021/03/10 10:25:13;;;;;;;16.75;5.07;;;;;;;24.77;47.88;102434.59;5033096;28;20104;-61
2021/03/10 10:27:40;;;;;;;19.15;6.15;;;;;;;24.77;47.25;102435.47;5028882;28;20022;-61
2021/03/10 10:30:07;;;;;;;20.25;6.05;;;;;;;24.75;47.82;102440.28;5028553;28;20092;-61
2021/03/10 10:32:32;;;;;;;14.75;5.65;;;;;;;24.78;46.90;102428.06;5030290;28;20361;-61
2021/03/10 10:34:57;;;;;;;19.90;6.05;;;;;;;24.73;46.91;102416.75;5033620;28;20520;-62
2021/03/10 10:37:22;;;;;;;14.55;4.93;;;;;;;24.73;47.58;102417.59;5033576;28;20029;-61
2021/03/10 10:39:49;;;;;;;22.23;6.20;;;;;;;24.75;46.98;102410.03;5031779;28;20069;-62
2021/03/10 10:42:14;;;;;;;17.13;5.15;;;;;;;24.75;47.01;102417.44;5033646;28;20046;-62
2021/03/10 10:44:40;;;;;;;19.20;5.65;;;;;;;24.76;46.35;102422.75;5028347;28;20469;-62
2021/03/10 10:47:05;;;;;;;19.25;6.25;;;;;;;24.69;46.95;102421.75;5014846;28;20068;-62
2021/03/10 10:49:30;;;;;;;21.77;6.03;;;;;;;24.75;47.66;102421.03;5025978;28;20029;-63
2021/03/10 10:51:55;;;;;;;18.30;6.60;;;;;;;24.74;46.82;102422.06;5025959;28;20457;-62
2021/03/10 10:54:21;;;;;;;20.50;5.80;;;;;;;24.71;47.09;102422.44;5023904;28;20022;-62
2021/03/10 10:56:47;;;;;;;20.70;5.22;;;;;;;24.69;47.25;102438.25;5029751;28;20091;-62
2021/03/10 10:59:13;;;;;;;16.77;5.82;;;;;;;24.72;47.54;102434.28;5033590;28;20156;-62
2021/03/10 11:01:38;;;;;;;18.52;5.60;;;;;;;24.74;45.39;102424.81;5030875;28;20026;-62
2021/03/10 11:04:04;;;;;;;17.77;5.57;;;;;;;24.73;47.54;102431.34;5030847;28;20037;-62
2021/03/10 11:06:29;;;;;;;23.00;6.43;;;;;;;24.71;47.01;102427.94;5031999;28;20068;-61
2021/03/10 11:08:54;;;;;;;21.55;6.05;;;;;;;24.72;47.60;102432.41;5033085;28;20021;-62
2021/03/10 11:11:19;;;;;;;17.95;5.75;;;;;;;24.72;46.47;102428.78;5033324;28;20075;-62
2021/03/10 11:13:45;;;;;;;16.83;5.57;;;;;;;24.71;47.82;102441.69;5033437;28;20025;-61
2021/03/10 11:16:10;;;;;;;16.70;5.63;;;;;;;24.74;46.68;102430.31;5032955;28;20581;-62
2021/03/10 11:18:35;;;;;;;19.35;6.20;;;;;;;24.72;46.51;102432.41;5033653;28;20091;-62
2021/03/10 11:21:01;;;;;;;21.42;6.90;;;;;;;24.71;47.41;102422.44;5031928;28;20025;-62